< < Back
Terminal Aerodrome Forecast


Current Version              Previous Versions:   1  2  3  4  5  6  7  8  9  

Terminal Aerodrome Forecast

501
FTUS42 KILM 201100
TAFFLO
TAF
KFLO 201120Z 2012/2112 VRB03KT P6SM SKC
     FM201500 20006KT P6SM FEW040
     FM202300 21003KT P6SM BKN040
     FM210600 VRB02KT P6SM SCT040=



Latest METAR

056
SAUS70 KWBC 210200 RRN
MTRFLO
METAR KFLO 210153Z 00000KT 10SM CLR 15/13 A3001 RMK AO2 SLP159
T01500128


USA.gov is the U.S. government's official web portal to all federal, state and local government web resources and services.